Station: Bradshaw-Koolendong Valley

  Atmospheric Gas Attenuation - ITU Rec 676-11   --------------- db/100km ---------------
Date Time Temp RH % AH g/m3 Dew Point Wind Direction Speed kph Gust kph Barometer mB Rainfall Since 9am 24GHz 47GHz 76GHz 122GHz 134GHz 241GHz
07 07:40 12.2 95 10.25 11.4 4 4 1013.1 0 23.2 29.2 47.6 125.2 123.4 425.7
07 07:30 12 95 10.13 11.2 0 4 1016.3 0 23.0 29.2 47.3 124.5 122.3 421.9
07 07:20 12.1 95 10.19 11.3 0 0 1013.1 0 23.1 29.1 47.4 124.7 122.7 423.3
07 07:10 12.2 94 10.14 11.2 0 0 1013.1 0 23.0 29.0 47.1 123.9 121.8 420.2
07 07:00 12.2 94 10.14 11.3 2 4 1015.7 0 23.0 29.1 47.2 124.3 122.1 421.1
07 06:50 12.4 94 10.27 11.4 4 4 1013.1 0 23.3 29.1 47.6 125.1 123.4 425.6
07 06:40 12.6 94 10.4 11.6 0 0 1013.1 0 23.5 29.3 48.0 126.3 124.9 431.0
07 06:30 12.7 93 10.35 11.6 0 0 1015.2 0 23.4 29.3 47.8 125.8 124.2 428.6
07 06:20 12.9 92 10.37 11.6 0 0 1013.1 0 23.4 29.1 47.7 125.5 124.0 427.8
07 06:10 13.4 94 10.93 12.4 0 0 1013.1 0 24.6 30.0 49.8 131.2 131.2 453.0
07 06:00 13.6 93 10.95 12.5 0 0 1014.8 0 24.6 30.0 49.9 131.3 131.3 453.4
07 05:50 13.7 92 10.89 12.4 0 0 1013.1 0 24.5 29.8 49.4 130.2 130.1 449.2
07 05:40 14.1 92 11.17 12.8 0 0 1013.1 0 25.1 30.1 50.4 132.8 133.4 460.9
07 05:30 14.2 92 11.23 12.9 0 2 1014.6 0 25.2 30.3 50.7 133.5 134.3 463.9
07 05:20 14.6 92 11.51 13.4 2 2 1013.1 0 25.8 30.6 51.6 135.9 137.4 475.0
07 05:10 14.4 92 11.37 13.2 4 6 1013.1 0 25.5 30.4 51.1 134.6 135.8 469.2
07 04:50 14.4 91 11.25 12.9 0 0 1013.1 0 25.2 30.2 50.6 133.2 134.0 463.1
07 04:40 14.6 92 11.51 13.3 0 0 1013.1 0 25.8 30.6 51.6 135.9 137.4 475.0
07 04:30 14.7 92 11.58 13.4 0 0 1013.8 0 25.9 30.7 51.9 136.6 138.3 478.1
07 04:20 14.8 92 11.65 13.6 0 0 1013.1 0 26.1 30.7 52.1 137.2 139.1 480.8
07 04:10 14.8 92 11.65 13.6 4 6 1013.1 0 26.1 30.7 52.1 137.2 139.1 480.8
07 04:00 14.8 92 11.65 13.5 2 6 1013.6 0 26.1 30.8 52.1 137.2 139.1 481.0
07 03:50 14.9 91 11.6 13.4 0 0 1013.1 0 26.0 30.6 51.8 136.4 138.2 477.7
07 03:40 14.8 89 11.27 13.1 4 4 1013.1 0 25.3 30.1 50.4 132.7 133.6 461.7
07 03:30 15.2 89 11.55 13.4 0 0 1013.5 0 25.8 30.4 51.4 135.3 137.0 473.4
07 03:20 15.4 90 11.82 13.7 0 0 1013.1 0 26.4 30.8 52.4 138.1 140.4 485.6
07 03:10 15.4 87 11.43 13.2 0 0 1013.1 0 25.6 30.1 50.7 133.6 134.8 466.1
07 03:00 15.7 89 11.91 13.9 0 0 1013.4 0 26.6 30.9 52.6 138.7 141.2 488.3
07 02:50 15.7 89 11.91 13.9 0 0 1013.1 0 26.6 30.9 52.6 138.6 141.2 488.2
07 02:40 15.8 88 11.85 13.8 4 4 1013.1 0 26.4 30.7 52.3 137.7 140.1 484.6
07 02:30 15.9 87 11.78 13.7 0 0 1013.4 0 26.3 30.6 51.9 136.8 139.0 480.6
07 02:20 16 87 11.85 13.8 0 0 1013.1 0 26.4 30.7 52.1 137.4 139.8 483.3
07 02:10 16.2 86 11.86 13.8 0 0 1013.1 0 26.4 30.6 52.0 137.1 139.5 482.6
07 02:00 16.3 84 11.65 13.6 0 0 1013.4 0 26.0 30.2 51.1 134.6 136.4 471.6
07 01:50 16.5 83 11.65 13.6 0 0 1013.1 0 26.0 30.1 50.9 134.2 136.0 470.3
07 01:40 16.7 81 11.51 13.4 0 0 1013.1 0 25.7 29.8 50.2 132.2 133.7 462.2
07 01:30 16.9 83 11.94 14 0 0 1013.5 0 26.6 30.5 51.9 136.9 139.4 482.3
07 01:20 17.1 82 11.94 14 0 0 1013.1 0 26.6 30.4 51.8 136.5 139.0 480.9
07 01:10 17.3 82 12.08 14.2 0 0 1013.1 0 26.8 30.6 52.3 137.7 140.6 486.6
07 01:00 17.6 79 11.85 13.9 0 0 1013.7 0 26.3 30.1 51.1 134.6 136.9 473.6
07 00:50 17.8 78 11.84 13.9 0 0 1013.1 0 26.3 30.0 50.9 134.1 136.4 471.7
07 00:40 18.1 80 12.36 14.7 0 0 1013.1 0 27.4 30.8 52.9 139.5 143.1 495.3
07 00:30 18.3 76 11.88 14 0 0 1013.8 0 26.3 29.9 50.8 133.8 136.1 470.8
07 00:20 18.6 75 11.94 14.2 0 0 1013.1 0 26.5 29.9 50.8 133.9 136.3 471.7
07 00:10 18.7 74 11.85 14.1 0 0 1013.1 0 26.3 29.7 50.4 132.7 134.9 466.7
07 00:00 19.1 74 12.13 14.4 0 0 1013.9 0 26.8 30.1 51.3 135.2 138.1 478.1
06 23:50 19.5 74 12.42 14.7 0 0 1013.1 0 27.4 30.4 52.2 137.7 141.3 489.3
06 23:40 19.7 72 12.23 14.5 0 0 1013.1 0 27.0 30.0 51.3 135.2 138.3 478.9
06 23:30 20.1 71 12.34 14.7 0 0 1014.2 0 27.2 30.1 51.6 135.9 139.3 482.1
06 23:20 20.3 70 12.31 14.8 0 0 1013.1 0 27.1 30.0 51.2 135.1 138.4 479.0
06 23:10 20.4 70 12.38 14.7 0 0 1013.1 0 27.3 30.0 51.5 135.7 139.1 481.8
06 23:00 20.6 69 12.35 14.7 0 0 1014 0 27.2 30.0 51.3 135.1 138.5 479.4
06 22:50 21 67 12.27 14.8 0 0 1013.1 0 27.0 29.7 50.6 133.4 136.6 472.9
06 22:40 21.1 67 12.34 14.7 0 0 1013.1 0 27.1 29.7 50.8 134.0 137.3 475.6
06 22:30 21.2 66 12.23 14.6 0 0 1013.7 0 26.9 29.5 50.4 132.7 135.7 470.0
06 22:20 21.7 62 11.83 14.3 0 0 1013.1 0 26.0 28.7 48.4 127.5 129.5 448.2
06 22:10 21.8 65 12.47 14.9 0 0 1013.1 0 27.4 29.7 50.9 134.2 137.8 477.4
06 22:00 22.1 63 12.3 14.7 0 0 1013.6 0 27.0 29.4 50.1 131.9 135.1 467.8
06 21:50 22.2 63 12.37 14.8 0 0 1013.1 0 27.1 29.4 50.3 132.5 135.8 470.3
06 21:40 22.4 61 12.11 14.7 0 0 1013.1 0 26.6 28.9 49.1 129.3 132.0 457.1
06 21:30 22.4 62 12.31 14.8 0 0 1013.4 0 27.0 29.3 49.9 131.5 134.7 466.4
06 21:20 22.1 61 11.91 14.2 0 0 1013.1 0 26.2 28.7 48.5 127.7 129.9 449.6
06 21:10 22.2 59 11.58 13.8 0 0 1013.1 0 25.5 28.1 47.1 124.0 125.4 433.9
06 21:00 22.9 57 11.65 13.9 0 2 1013.1 0 25.6 28.0 46.9 123.7 125.2 433.3
06 20:50 23.2 56 11.64 13.9 4 4 1013.1 0 25.5 27.9 46.7 123.1 124.6 431.2
06 20:40 23.4 53 11.14 13.5 4 4 1013.1 0 24.5 27.1 44.7 117.6 117.9 407.8
06 20:30 24.4 52 11.57 13.9 4 6 1012.8 0 25.3 27.4 45.8 120.5 121.7 421.5
06 20:20 24.7 49 11.09 13.5 0 0 1013.1 0 24.3 26.6 43.8 115.2 115.3 399.1
06 20:10 25.2 48 11.17 13.4 0 0 1013.1 0 24.4 26.6 43.8 115.3 115.6 400.0
06 20:00 25.8 47 11.32 13.6 0 0 1012.4 0 24.7 26.6 44.0 115.9 116.5 403.2
06 19:50 26.3 45 11.14 13.7 0 0 1013.1 0 24.3 26.2 43.1 113.4 113.6 393.3
06 19:40 27 42 10.81 13.3 0 0 1013.1 0 23.6 25.5 41.5 109.2 108.7 376.1
06 19:30 27.4 42 11.05 13.4 2 6 1012 0 24.0 25.7 42.1 110.9 110.9 383.9
06 19:20 27.6 41 10.91 13.5 6 6 1013.1 0 23.7 25.5 41.6 109.4 109.0 377.4
06 19:10 28.3 40 11.06 13.4 2 4 1013.1 0 24.0 25.5 41.8 109.9 109.8 380.3
06 19:00 28.7 39 11.02 13.4 4 7 1011.7 0 23.9 25.3 41.3 108.8 108.7 376.4
06 18:50 28.9 37 10.57 13.1 2 4 1013.1 0 23.0 24.7 39.7 104.5 103.3 357.6
06 18:40 29.2 38 11.04 13.4 6 9 1013.1 0 23.9 25.2 41.2 108.5 108.4 375.3
06 18:30 29.5 37 10.92 13.3 7 13 1011 0 23.7 24.9 40.6 106.8 106.4 368.5
06 18:20 29.9 36 10.86 13.6 11 13 1013.1 0 23.5 24.8 40.2 105.9 105.4 364.9
06 18:10 30.4 35 10.85 13.6 7 9 1013.1 0 23.5 24.6 40.0 105.2 104.6 362.2
06 18:00 30.9 35 11.14 13.7 9 19 1010.8 0 24.0 24.8 40.6 107.0 107.1 370.9
06 17:50 31.4 33 10.79 13.6 9 13 1013.1 0 23.3 24.3 39.3 103.3 102.6 355.5
06 17:40 31.7 34 11.3 14.3 11 15 1013.1 0 24.3 24.9 40.9 107.6 108.0 374.3
06 17:30 31.8 34 11.36 14.4 9 15 1010.5 0 24.4 24.9 40.9 107.8 108.3 375.4
06 17:20 31.8 35 11.69 14.8 9 11 1013.1 0 25.1 25.5 42.2 111.1 112.3 389.4
06 17:10 32.3 34 11.67 14.8 11 15 1013.1 0 25.0 25.3 41.9 110.2 111.4 386.2
06 17:00 32.8 33 11.63 14.4 7 13 1010.4 0 24.9 25.0 41.4 108.9 110.0 381.4
06 16:50 32.5 28 9.71 12.1 7 9 1013.1 0 21.0 22.6 35.2 92.4 89.5 309.6
06 16:40 32.4 26 8.97 10.4 9 15 1013.1 0 19.5 21.6 32.9 86.2 81.8 282.6
06 16:30 32.8 34 11.98 15.3 9 15 1010.2 0 25.7 25.5 42.5 112.1 114.0 395.3
06 16:20 32.3 32 10.98 13.9 6 7 1013.1 0 23.6 24.3 39.5 103.9 103.6 359.0
06 16:10 31.5 31 10.19 12.3 6 9 1013.1 0 22.0 23.4 37.2 97.8 95.9 331.7
06 16:00 32.4 29 10 12.1 11 20 1010.2 0 21.6 22.9 36.1 94.8 92.5 320.2
06 15:50 33.2 28 10.08 12.2 11 13 1013.1 0 21.7 22.9 36.1 94.9 92.7 320.8
06 15:40 32.2 30 10.24 12.4 6 6 1013.1 0 22.1 23.3 37.1 97.4 95.6 330.8
06 15:30 33 29 10.33 12.6 9 17 1010.4 0 22.3 23.2 36.9 97.0 95.4 330.3
06 15:20 33.1 30 10.74 13.2 7 9 1013.1 0 23.1 23.8 38.3 100.8 100.0 346.3
06 15:10 33.2 28 10.08 12.7 13 19 1013.1 0 21.7 22.9 36.1 94.9 92.7 320.8
06 15:00 33.2 30 10.8 13.3 13 26 1010.5 0 23.2 23.8 38.4 100.9 100.3 347.4

Last Refresh: 07-Aug-2020 07:47:45

Most of the information presented on this site is sourced from the Bureau of Meteorology.  Copyright in all material sourced from the Bureau of Meteorology resides with the Commonwealth of Australia.